sensor_id;sensor_type;location;lat;lon;timestamp;P1;durP1;ratioP1;P2;durP2;ratioP2
68432;SDS011;55412;51.350;17.056;2022-07-05T00:00:47;6.95;;;5.05;;
68432;SDS011;55412;51.350;17.056;2022-07-05T00:03:13;6.30;;;4.80;;
68432;SDS011;55412;51.350;17.056;2022-07-05T00:05:39;6.33;;;4.57;;
68432;SDS011;55412;51.350;17.056;2022-07-05T00:08:05;6.57;;;4.85;;
68432;SDS011;55412;51.350;17.056;2022-07-05T00:10:32;7.25;;;5.50;;
68432;SDS011;55412;51.350;17.056;2022-07-05T00:13:00;7.13;;;4.95;;
68432;SDS011;55412;51.350;17.056;2022-07-05T00:15:27;6.88;;;4.80;;
68432;SDS011;55412;51.350;17.056;2022-07-05T00:17:53;7.83;;;5.03;;
68432;SDS011;55412;51.350;17.056;2022-07-05T00:20:19;9.02;;;5.13;;
68432;SDS011;55412;51.350;17.056;2022-07-05T00:22:45;9.18;;;4.85;;
68432;SDS011;55412;51.350;17.056;2022-07-05T00:25:11;9.43;;;5.03;;
68432;SDS011;55412;51.350;17.056;2022-07-05T00:27:37;8.45;;;5.20;;
68432;SDS011;55412;51.350;17.056;2022-07-05T00:30:06;7.67;;;4.53;;
68432;SDS011;55412;51.350;17.056;2022-07-05T00:32:34;6.32;;;4.78;;
68432;SDS011;55412;51.350;17.056;2022-07-05T00:35:01;7.70;;;5.05;;
68432;SDS011;55412;51.350;17.056;2022-07-05T00:37:28;8.75;;;5.32;;
68432;SDS011;55412;51.350;17.056;2022-07-05T00:39:54;7.82;;;5.18;;
68432;SDS011;55412;51.350;17.056;2022-07-05T00:42:21;7.10;;;4.20;;
68432;SDS011;55412;51.350;17.056;2022-07-05T00:44:47;6.75;;;4.45;;
68432;SDS011;55412;51.350;17.056;2022-07-05T00:47:13;6.47;;;4.20;;
68432;SDS011;55412;51.350;17.056;2022-07-05T00:49:40;7.68;;;4.53;;
68432;SDS011;55412;51.350;17.056;2022-07-05T00:52:07;6.78;;;4.40;;
68432;SDS011;55412;51.350;17.056;2022-07-05T00:54:36;7.17;;;4.77;;
68432;SDS011;55412;51.350;17.056;2022-07-05T00:57:04;7.72;;;5.28;;
68432;SDS011;55412;51.350;17.056;2022-07-05T00:59:32;6.93;;;5.03;;
68432;SDS011;55412;51.350;17.056;2022-07-05T01:01:59;6.95;;;5.28;;
68432;SDS011;55412;51.350;17.056;2022-07-05T01:04:25;7.90;;;4.47;;
68432;SDS011;55412;51.350;17.056;2022-07-05T01:06:52;6.80;;;3.93;;
68432;SDS011;55412;51.350;17.056;2022-07-05T01:09:19;6.97;;;5.05;;
68432;SDS011;55412;51.350;17.056;2022-07-05T01:11:47;7.82;;;4.68;;
68432;SDS011;55412;51.350;17.056;2022-07-05T01:14:19;7.03;;;4.28;;
68432;SDS011;55412;51.350;17.056;2022-07-05T01:16:48;7.00;;;4.90;;
68432;SDS011;55412;51.350;17.056;2022-07-05T01:19:15;7.80;;;4.27;;
68432;SDS011;55412;51.350;17.056;2022-07-05T01:21:45;8.85;;;4.68;;
68432;SDS011;55412;51.350;17.056;2022-07-05T01:24:14;7.30;;;4.65;;
68432;SDS011;55412;51.350;17.056;2022-07-05T01:26:44;7.20;;;4.63;;
68432;SDS011;55412;51.350;17.056;2022-07-05T01:29:13;6.38;;;4.18;;
68432;SDS011;55412;51.350;17.056;2022-07-05T01:31:40;8.83;;;4.03;;
68432;SDS011;55412;51.350;17.056;2022-07-05T01:34:06;6.53;;;4.10;;
68432;SDS011;55412;51.350;17.056;2022-07-05T01:36:33;8.50;;;5.50;;
68432;SDS011;55412;51.350;17.056;2022-07-05T01:39:01;9.73;;;4.85;;
68432;SDS011;55412;51.350;17.056;2022-07-05T01:41:30;7.82;;;4.07;;
68432;SDS011;55412;51.350;17.056;2022-07-05T01:43:56;8.93;;;4.30;;
68432;SDS011;55412;51.350;17.056;2022-07-05T01:46:23;8.20;;;4.18;;
68432;SDS011;55412;51.350;17.056;2022-07-05T01:48:53;8.90;;;4.63;;
68432;SDS011;55412;51.350;17.056;2022-07-05T01:51:23;7.30;;;3.85;;
68432;SDS011;55412;51.350;17.056;2022-07-05T01:53:54;10.50;;;4.43;;
68432;SDS011;55412;51.350;17.056;2022-07-05T01:56:20;8.00;;;4.33;;
68432;SDS011;55412;51.350;17.056;2022-07-05T01:58:46;7.85;;;4.50;;
68432;SDS011;55412;51.350;17.056;2022-07-05T02:01:13;8.15;;;3.42;;
68432;SDS011;55412;51.350;17.056;2022-07-05T02:03:40;7.05;;;4.40;;
68432;SDS011;55412;51.350;17.056;2022-07-05T02:06:06;5.60;;;3.95;;
68432;SDS011;55412;51.350;17.056;2022-07-05T02:08:35;9.53;;;4.63;;
68432;SDS011;55412;51.350;17.056;2022-07-05T02:11:02;9.68;;;4.75;;
68432;SDS011;55412;51.350;17.056;2022-07-05T02:13:29;7.63;;;3.67;;
68432;SDS011;55412;51.350;17.056;2022-07-05T02:15:55;6.25;;;4.47;;
68432;SDS011;55412;51.350;17.056;2022-07-05T02:18:21;6.75;;;4.18;;
68432;SDS011;55412;51.350;17.056;2022-07-05T02:20:47;9.90;;;5.10;;
68432;SDS011;55412;51.350;17.056;2022-07-05T02:23:13;8.20;;;4.63;;
68432;SDS011;55412;51.350;17.056;2022-07-05T02:25:39;7.50;;;4.20;;
68432;SDS011;55412;51.350;17.056;2022-07-05T02:28:06;8.60;;;4.72;;
68432;SDS011;55412;51.350;17.056;2022-07-05T02:30:32;8.05;;;4.78;;
68432;SDS011;55412;51.350;17.056;2022-07-05T02:32:58;7.00;;;4.93;;
68432;SDS011;55412;51.350;17.056;2022-07-05T02:35:24;10.90;;;5.18;;
68432;SDS011;55412;51.350;17.056;2022-07-05T02:37:50;6.22;;;4.30;;
68432;SDS011;55412;51.350;17.056;2022-07-05T02:40:16;10.45;;;4.38;;
68432;SDS011;55412;51.350;17.056;2022-07-05T02:42:42;10.27;;;4.35;;
68432;SDS011;55412;51.350;17.056;2022-07-05T02:45:08;6.67;;;4.50;;
68432;SDS011;55412;51.350;17.056;2022-07-05T02:47:35;9.20;;;4.07;;
68432;SDS011;55412;51.350;17.056;2022-07-05T02:50:05;5.55;;;3.45;;
68432;SDS011;55412;51.350;17.056;2022-07-05T02:52:34;6.10;;;3.92;;
68432;SDS011;55412;51.350;17.056;2022-07-05T02:55:01;8.10;;;4.25;;
68432;SDS011;55412;51.350;17.056;2022-07-05T02:57:28;6.83;;;3.73;;
68432;SDS011;55412;51.350;17.056;2022-07-05T02:59:55;6.88;;;3.72;;
68432;SDS011;55412;51.350;17.056;2022-07-05T03:02:22;7.97;;;3.75;;
68432;SDS011;55412;51.350;17.056;2022-07-05T03:04:49;8.55;;;4.28;;
68432;SDS011;55412;51.350;17.056;2022-07-05T03:07:15;8.18;;;4.20;;
68432;SDS011;55412;51.350;17.056;2022-07-05T03:09:41;8.03;;;4.13;;
68432;SDS011;55412;51.350;17.056;2022-07-05T03:12:07;7.93;;;4.20;;
68432;SDS011;55412;51.350;17.056;2022-07-05T03:14:33;8.32;;;3.63;;
68432;SDS011;55412;51.350;17.056;2022-07-05T03:17:00;7.60;;;3.85;;
68432;SDS011;55412;51.350;17.056;2022-07-05T03:19:26;10.40;;;4.55;;
68432;SDS011;55412;51.350;17.056;2022-07-05T03:21:52;6.73;;;3.67;;
68432;SDS011;55412;51.350;17.056;2022-07-05T03:24:18;13.27;;;4.35;;
68432;SDS011;55412;51.350;17.056;2022-07-05T03:26:44;7.80;;;4.32;;
68432;SDS011;55412;51.350;17.056;2022-07-05T03:29:10;7.28;;;4.07;;
68432;SDS011;55412;51.350;17.056;2022-07-05T03:31:37;8.88;;;4.40;;
68432;SDS011;55412;51.350;17.056;2022-07-05T03:34:03;6.83;;;3.67;;
68432;SDS011;55412;51.350;17.056;2022-07-05T03:36:29;8.38;;;4.35;;
68432;SDS011;55412;51.350;17.056;2022-07-05T03:38:55;8.63;;;4.40;;
68432;SDS011;55412;51.350;17.056;2022-07-05T03:41:21;7.95;;;4.45;;
68432;SDS011;55412;51.350;17.056;2022-07-05T03:43:47;6.25;;;4.55;;
68432;SDS011;55412;51.350;17.056;2022-07-05T03:46:13;6.00;;;4.57;;
68432;SDS011;55412;51.350;17.056;2022-07-05T03:48:39;7.68;;;4.50;;
68432;SDS011;55412;51.350;17.056;2022-07-05T03:51:05;7.95;;;4.35;;
68432;SDS011;55412;51.350;17.056;2022-07-05T03:53:31;8.00;;;4.63;;
68432;SDS011;55412;51.350;17.056;2022-07-05T03:55:57;6.68;;;4.95;;
68432;SDS011;55412;51.350;17.056;2022-07-05T03:58:23;7.20;;;4.50;;
68432;SDS011;55412;51.350;17.056;2022-07-05T04:00:49;7.25;;;4.70;;
68432;SDS011;55412;51.350;17.056;2022-07-05T04:03:15;8.40;;;4.70;;
68432;SDS011;55412;51.350;17.056;2022-07-05T04:05:41;8.90;;;4.47;;
68432;SDS011;55412;51.350;17.056;2022-07-05T04:08:07;8.18;;;4.75;;
68432;SDS011;55412;51.350;17.056;2022-07-05T04:10:33;6.47;;;4.47;;
68432;SDS011;55412;51.350;17.056;2022-07-05T04:12:59;12.95;;;5.03;;
68432;SDS011;55412;51.350;17.056;2022-07-05T04:15:25;13.10;;;4.97;;
68432;SDS011;55412;51.350;17.056;2022-07-05T04:17:52;11.77;;;4.70;;
68432;SDS011;55412;51.350;17.056;2022-07-05T04:20:21;10.65;;;4.70;;
68432;SDS011;55412;51.350;17.056;2022-07-05T04:22:49;7.90;;;4.67;;
68432;SDS011;55412;51.350;17.056;2022-07-05T04:25:16;10.18;;;4.88;;
68432;SDS011;55412;51.350;17.056;2022-07-05T04:30:15;9.88;;;5.20;;
68432;SDS011;55412;51.350;17.056;2022-07-05T04:32:43;9.13;;;5.07;;
68432;SDS011;55412;51.350;17.056;2022-07-05T04:35:09;6.83;;;4.83;;
68432;SDS011;55412;51.350;17.056;2022-07-05T04:37:37;7.65;;;4.70;;
68432;SDS011;55412;51.350;17.056;2022-07-05T04:40:04;8.30;;;5.45;;
68432;SDS011;55412;51.350;17.056;2022-07-05T04:42:32;9.65;;;5.47;;
68432;SDS011;55412;51.350;17.056;2022-07-05T04:44:58;8.18;;;5.07;;
68432;SDS011;55412;51.350;17.056;2022-07-05T04:47:24;12.97;;;5.17;;
68432;SDS011;55412;51.350;17.056;2022-07-05T04:49:51;7.70;;;5.50;;
68432;SDS011;55412;51.350;17.056;2022-07-05T04:52:18;10.57;;;5.55;;
68432;SDS011;55412;51.350;17.056;2022-07-05T04:54:44;8.05;;;5.38;;
68432;SDS011;55412;51.350;17.056;2022-07-05T04:57:10;7.80;;;5.07;;
68432;SDS011;55412;51.350;17.056;2022-07-05T04:59:36;10.03;;;5.43;;
68432;SDS011;55412;51.350;17.056;2022-07-05T05:02:02;8.40;;;5.90;;
68432;SDS011;55412;51.350;17.056;2022-07-05T05:04:28;9.27;;;5.40;;
68432;SDS011;55412;51.350;17.056;2022-07-05T05:06:54;10.70;;;5.28;;
68432;SDS011;55412;51.350;17.056;2022-07-05T05:09:20;10.27;;;6.85;;
68432;SDS011;55412;51.350;17.056;2022-07-05T05:11:47;8.73;;;5.77;;
68432;SDS011;55412;51.350;17.056;2022-07-05T05:14:13;9.23;;;5.10;;
68432;SDS011;55412;51.350;17.056;2022-07-05T05:16:39;8.02;;;5.38;;
68432;SDS011;55412;51.350;17.056;2022-07-05T05:19:05;7.95;;;4.72;;
68432;SDS011;55412;51.350;17.056;2022-07-05T05:21:32;7.90;;;5.32;;
68432;SDS011;55412;51.350;17.056;2022-07-05T05:23:58;10.80;;;5.90;;
68432;SDS011;55412;51.350;17.056;2022-07-05T05:26:25;7.88;;;5.80;;
68432;SDS011;55412;51.350;17.056;2022-07-05T05:28:51;10.43;;;5.90;;
68432;SDS011;55412;51.350;17.056;2022-07-05T05:31:17;9.82;;;6.05;;
68432;SDS011;55412;51.350;17.056;2022-07-05T05:33:44;9.70;;;5.68;;
68432;SDS011;55412;51.350;17.056;2022-07-05T05:36:11;10.17;;;6.00;;
68432;SDS011;55412;51.350;17.056;2022-07-05T05:38:37;7.55;;;5.97;;
68432;SDS011;55412;51.350;17.056;2022-07-05T05:41:04;7.20;;;5.18;;
68432;SDS011;55412;51.350;17.056;2022-07-05T05:43:30;8.82;;;5.72;;
68432;SDS011;55412;51.350;17.056;2022-07-05T05:45:56;12.07;;;6.15;;
68432;SDS011;55412;51.350;17.056;2022-07-05T05:48:22;10.47;;;6.60;;
68432;SDS011;55412;51.350;17.056;2022-07-05T05:50:48;10.25;;;6.20;;
68432;SDS011;55412;51.350;17.056;2022-07-05T05:53:16;9.88;;;5.72;;
68432;SDS011;55412;51.350;17.056;2022-07-05T05:55:42;14.40;;;6.63;;
68432;SDS011;55412;51.350;17.056;2022-07-05T06:00:47;9.03;;;5.17;;
68432;SDS011;55412;51.350;17.056;2022-07-05T06:03:15;8.60;;;5.95;;
68432;SDS011;55412;51.350;17.056;2022-07-05T06:05:42;8.82;;;5.38;;
68432;SDS011;55412;51.350;17.056;2022-07-05T06:08:08;9.48;;;5.00;;
68432;SDS011;55412;51.350;17.056;2022-07-05T06:10:34;8.63;;;4.35;;
68432;SDS011;55412;51.350;17.056;2022-07-05T06:13:05;6.63;;;4.27;;
68432;SDS011;55412;51.350;17.056;2022-07-05T06:15:34;7.03;;;4.70;;
68432;SDS011;55412;51.350;17.056;2022-07-05T06:18:02;8.40;;;5.18;;
68432;SDS011;55412;51.350;17.056;2022-07-05T06:20:32;10.02;;;3.72;;
68432;SDS011;55412;51.350;17.056;2022-07-05T06:23:00;4.72;;;2.75;;
68432;SDS011;55412;51.350;17.056;2022-07-05T06:25:28;6.27;;;2.73;;
68432;SDS011;55412;51.350;17.056;2022-07-05T06:28:02;6.40;;;2.90;;
68432;SDS011;55412;51.350;17.056;2022-07-05T06:30:34;5.43;;;2.47;;
68432;SDS011;55412;51.350;17.056;2022-07-05T06:33:03;7.10;;;2.85;;
68432;SDS011;55412;51.350;17.056;2022-07-05T06:35:30;5.97;;;2.22;;
68432;SDS011;55412;51.350;17.056;2022-07-05T06:38:01;4.23;;;2.50;;
68432;SDS011;55412;51.350;17.056;2022-07-05T06:40:31;4.75;;;2.75;;
68432;SDS011;55412;51.350;17.056;2022-07-05T06:43:03;4.35;;;2.30;;
68432;SDS011;55412;51.350;17.056;2022-07-05T06:45:34;4.65;;;2.80;;
68432;SDS011;55412;51.350;17.056;2022-07-05T06:48:01;6.13;;;3.22;;
68432;SDS011;55412;51.350;17.056;2022-07-05T06:50:31;5.37;;;3.30;;
68432;SDS011;55412;51.350;17.056;2022-07-05T06:53:00;7.72;;;3.83;;
68432;SDS011;55412;51.350;17.056;2022-07-05T06:55:27;5.78;;;2.92;;
68432;SDS011;55412;51.350;17.056;2022-07-05T06:57:58;5.28;;;3.50;;
68432;SDS011;55412;51.350;17.056;2022-07-05T07:00:29;5.50;;;2.83;;
68432;SDS011;55412;51.350;17.056;2022-07-05T07:02:57;6.83;;;3.63;;
68432;SDS011;55412;51.350;17.056;2022-07-05T07:05:23;7.22;;;3.58;;
68432;SDS011;55412;51.350;17.056;2022-07-05T07:07:50;6.72;;;3.90;;
68432;SDS011;55412;51.350;17.056;2022-07-05T07:10:35;5.13;;;3.22;;
68432;SDS011;55412;51.350;17.056;2022-07-05T07:13:01;7.43;;;3.28;;
68432;SDS011;55412;51.350;17.056;2022-07-05T07:15:28;6.30;;;2.90;;
68432;SDS011;55412;51.350;17.056;2022-07-05T07:17:55;6.97;;;3.95;;
68432;SDS011;55412;51.350;17.056;2022-07-05T07:20:22;6.07;;;4.10;;
68432;SDS011;55412;51.350;17.056;2022-07-05T07:22:49;6.00;;;3.15;;
68432;SDS011;55412;51.350;17.056;2022-07-05T07:25:15;5.75;;;3.67;;
68432;SDS011;55412;51.350;17.056;2022-07-05T07:27:46;5.43;;;3.97;;
68432;SDS011;55412;51.350;17.056;2022-07-05T07:30:15;6.57;;;3.85;;
68432;SDS011;55412;51.350;17.056;2022-07-05T07:32:48;7.78;;;3.20;;
68432;SDS011;55412;51.350;17.056;2022-07-05T07:35:15;6.75;;;3.92;;
68432;SDS011;55412;51.350;17.056;2022-07-05T07:37:41;8.23;;;3.70;;
68432;SDS011;55412;51.350;17.056;2022-07-05T07:40:07;7.30;;;4.63;;
68432;SDS011;55412;51.350;17.056;2022-07-05T07:42:34;7.63;;;4.80;;
68432;SDS011;55412;51.350;17.056;2022-07-05T07:45:02;7.85;;;5.03;;
68432;SDS011;55412;51.350;17.056;2022-07-05T07:47:30;9.15;;;5.13;;
68432;SDS011;55412;51.350;17.056;2022-07-05T07:49:58;5.70;;;3.92;;
68432;SDS011;55412;51.350;17.056;2022-07-05T07:52:25;7.67;;;4.67;;
68432;SDS011;55412;51.350;17.056;2022-07-05T07:54:51;7.57;;;4.28;;
68432;SDS011;55412;51.350;17.056;2022-07-05T07:57:17;9.85;;;4.78;;
68432;SDS011;55412;51.350;17.056;2022-07-05T07:59:43;8.63;;;4.22;;
68432;SDS011;55412;51.350;17.056;2022-07-05T08:02:10;9.55;;;4.97;;
68432;SDS011;55412;51.350;17.056;2022-07-05T08:04:36;6.87;;;3.47;;
68432;SDS011;55412;51.350;17.056;2022-07-05T08:07:02;7.55;;;3.72;;
68432;SDS011;55412;51.350;17.056;2022-07-05T08:09:29;7.70;;;3.60;;
68432;SDS011;55412;51.350;17.056;2022-07-05T08:11:56;5.72;;;2.80;;
68432;SDS011;55412;51.350;17.056;2022-07-05T08:14:22;5.05;;;2.58;;
68432;SDS011;55412;51.350;17.056;2022-07-05T08:16:48;5.40;;;2.70;;
68432;SDS011;55412;51.350;17.056;2022-07-05T08:19:15;4.38;;;2.10;;
68432;SDS011;55412;51.350;17.056;2022-07-05T08:22:00;7.20;;;2.90;;
68432;SDS011;55412;51.350;17.056;2022-07-05T08:24:27;6.53;;;3.72;;
68432;SDS011;55412;51.350;17.056;2022-07-05T08:26:53;4.75;;;3.08;;
68432;SDS011;55412;51.350;17.056;2022-07-05T08:29:19;6.13;;;3.13;;
68432;SDS011;55412;51.350;17.056;2022-07-05T08:31:47;4.97;;;2.72;;
68432;SDS011;55412;51.350;17.056;2022-07-05T08:34:15;7.43;;;3.13;;
68432;SDS011;55412;51.350;17.056;2022-07-05T08:36:45;5.60;;;3.08;;
68432;SDS011;55412;51.350;17.056;2022-07-05T08:39:12;5.25;;;2.83;;
68432;SDS011;55412;51.350;17.056;2022-07-05T08:41:41;4.90;;;3.13;;
68432;SDS011;55412;51.350;17.056;2022-07-05T08:44:12;5.53;;;2.10;;
68432;SDS011;55412;51.350;17.056;2022-07-05T08:46:43;6.38;;;3.00;;
68432;SDS011;55412;51.350;17.056;2022-07-05T08:49:10;6.07;;;2.90;;
68432;SDS011;55412;51.350;17.056;2022-07-05T08:51:38;5.97;;;3.00;;
68432;SDS011;55412;51.350;17.056;2022-07-05T08:54:10;6.37;;;2.77;;
68432;SDS011;55412;51.350;17.056;2022-07-05T08:56:37;7.65;;;3.25;;
68432;SDS011;55412;51.350;17.056;2022-07-05T08:59:07;6.35;;;2.53;;
68432;SDS011;55412;51.350;17.056;2022-07-05T09:01:33;8.65;;;3.05;;
68432;SDS011;55412;51.350;17.056;2022-07-05T09:04:04;5.75;;;2.78;;
68432;SDS011;55412;51.350;17.056;2022-07-05T09:06:34;7.23;;;2.73;;
68432;SDS011;55412;51.350;17.056;2022-07-05T09:09:04;5.53;;;2.33;;
68432;SDS011;55412;51.350;17.056;2022-07-05T09:11:39;5.38;;;2.17;;
68432;SDS011;55412;51.350;17.056;2022-07-05T09:14:17;6.50;;;3.03;;
68432;SDS011;55412;51.350;17.056;2022-07-05T09:16:49;5.18;;;3.03;;
68432;SDS011;55412;51.350;17.056;2022-07-05T09:19:16;4.73;;;3.03;;
68432;SDS011;55412;51.350;17.056;2022-07-05T09:21:43;7.40;;;3.10;;
68432;SDS011;55412;51.350;17.056;2022-07-05T09:24:10;4.85;;;2.00;;
68432;SDS011;55412;51.350;17.056;2022-07-05T09:29:17;5.30;;;2.65;;
68432;SDS011;55412;51.350;17.056;2022-07-05T09:31:48;5.10;;;2.53;;
68432;SDS011;55412;51.350;17.056;2022-07-05T09:34:15;7.43;;;3.70;;
68432;SDS011;55412;51.350;17.056;2022-07-05T09:42:37;6.53;;;2.75;;
68432;SDS011;55412;51.350;17.056;2022-07-05T09:44:52;7.17;;;3.20;;
68432;SDS011;55412;51.350;17.056;2022-07-05T09:47:23;5.53;;;3.40;;
68432;SDS011;55412;51.350;17.056;2022-07-05T09:49:56;7.03;;;3.03;;
68432;SDS011;55412;51.350;17.056;2022-07-05T09:52:30;6.00;;;3.25;;
68432;SDS011;55412;51.350;17.056;2022-07-05T09:55:03;7.63;;;2.92;;
68432;SDS011;55412;51.350;17.056;2022-07-05T09:57:30;6.00;;;3.40;;
68432;SDS011;55412;51.350;17.056;2022-07-05T10:00:13;6.82;;;3.65;;
68432;SDS011;55412;51.350;17.056;2022-07-05T10:05:22;11.85;;;3.50;;
68432;SDS011;55412;51.350;17.056;2022-07-05T10:07:50;6.22;;;2.60;;
68432;SDS011;55412;51.350;17.056;2022-07-05T10:10:19;6.73;;;2.97;;
68432;SDS011;55412;51.350;17.056;2022-07-05T10:12:47;6.07;;;3.25;;
68432;SDS011;55412;51.350;17.056;2022-07-05T10:15:22;5.47;;;2.67;;
68432;SDS011;55412;51.350;17.056;2022-07-05T10:17:52;6.18;;;2.58;;
68432;SDS011;55412;51.350;17.056;2022-07-05T10:23:06;7.23;;;2.67;;
68432;SDS011;55412;51.350;17.056;2022-07-05T10:25:39;6.85;;;2.90;;
68432;SDS011;55412;51.350;17.056;2022-07-05T10:28:08;5.10;;;2.47;;
68432;SDS011;55412;51.350;17.056;2022-07-05T10:30:36;5.90;;;2.88;;
68432;SDS011;55412;51.350;17.056;2022-07-05T10:33:03;8.88;;;3.30;;
68432;SDS011;55412;51.350;17.056;2022-07-05T10:35:32;5.13;;;2.63;;
68432;SDS011;55412;51.350;17.056;2022-07-05T10:37:58;5.20;;;2.53;;
68432;SDS011;55412;51.350;17.056;2022-07-05T10:40:26;6.80;;;2.30;;
68432;SDS011;55412;51.350;17.056;2022-07-05T10:42:55;5.80;;;2.50;;
68432;SDS011;55412;51.350;17.056;2022-07-05T10:45:31;4.43;;;2.20;;
68432;SDS011;55412;51.350;17.056;2022-07-05T10:53:22;4.70;;;2.33;;
68432;SDS011;55412;51.350;17.056;2022-07-05T11:03:55;6.00;;;2.08;;
68432;SDS011;55412;51.350;17.056;2022-07-05T11:06:28;9.23;;;2.40;;
68432;SDS011;55412;51.350;17.056;2022-07-05T11:16:48;5.18;;;3.03;;
68432;SDS011;55412;51.350;17.056;2022-07-05T11:20:00;6.57;;;2.88;;
68432;SDS011;55412;51.350;17.056;2022-07-05T11:22:30;5.30;;;3.45;;
68432;SDS011;55412;51.350;17.056;2022-07-05T11:25:00;4.72;;;2.80;;
68432;SDS011;55412;51.350;17.056;2022-07-05T11:27:27;6.37;;;2.60;;
68432;SDS011;55412;51.350;17.056;2022-07-05T11:29:54;9.88;;;2.90;;
68432;SDS011;55412;51.350;17.056;2022-07-05T11:34:54;5.00;;;3.20;;
68432;SDS011;55412;51.350;17.056;2022-07-05T11:37:56;6.15;;;3.08;;
68432;SDS011;55412;51.350;17.056;2022-07-05T11:40:35;4.40;;;2.57;;
68432;SDS011;55412;51.350;17.056;2022-07-05T11:43:05;7.03;;;2.65;;
68432;SDS011;55412;51.350;17.056;2022-07-05T11:45:33;5.28;;;2.70;;
68432;SDS011;55412;51.350;17.056;2022-07-05T11:48:00;6.25;;;3.28;;
68432;SDS011;55412;51.350;17.056;2022-07-05T11:50:30;6.47;;;3.40;;
68432;SDS011;55412;51.350;17.056;2022-07-05T11:53:00;6.90;;;3.13;;
68432;SDS011;55412;51.350;17.056;2022-07-05T11:55:28;5.63;;;3.20;;
68432;SDS011;55412;51.350;17.056;2022-07-05T11:57:55;5.22;;;3.45;;
68432;SDS011;55412;51.350;17.056;2022-07-05T12:00:26;5.35;;;3.08;;
68432;SDS011;55412;51.350;17.056;2022-07-05T12:02:58;6.00;;;2.88;;
68432;SDS011;55412;51.350;17.056;2022-07-05T12:05:31;6.67;;;3.17;;
68432;SDS011;55412;51.350;17.056;2022-07-05T12:07:58;7.30;;;3.85;;
68432;SDS011;55412;51.350;17.056;2022-07-05T12:10:24;5.47;;;3.35;;
68432;SDS011;55412;51.350;17.056;2022-07-05T12:13:09;6.45;;;3.70;;
68432;SDS011;55412;51.350;17.056;2022-07-05T12:15:36;7.95;;;4.07;;
68432;SDS011;55412;51.350;17.056;2022-07-05T12:18:04;6.10;;;3.97;;
68432;SDS011;55412;51.350;17.056;2022-07-05T12:20:32;6.88;;;4.70;;
68432;SDS011;55412;51.350;17.056;2022-07-05T12:23:01;5.63;;;3.63;;
68432;SDS011;55412;51.350;17.056;2022-07-05T12:25:29;7.13;;;4.57;;
68432;SDS011;55412;51.350;17.056;2022-07-05T12:27:58;6.95;;;3.83;;
68432;SDS011;55412;51.350;17.056;2022-07-05T12:30:29;7.47;;;4.10;;
68432;SDS011;55412;51.350;17.056;2022-07-05T12:33:06;7.43;;;4.68;;
68432;SDS011;55412;51.350;17.056;2022-07-05T12:35:41;7.20;;;5.00;;
68432;SDS011;55412;51.350;17.056;2022-07-05T12:38:10;8.57;;;5.15;;
68432;SDS011;55412;51.350;17.056;2022-07-05T12:40:42;7.95;;;4.57;;
68432;SDS011;55412;51.350;17.056;2022-07-05T12:43:11;6.83;;;3.60;;
68432;SDS011;55412;51.350;17.056;2022-07-05T12:45:44;7.13;;;4.90;;
68432;SDS011;55412;51.350;17.056;2022-07-05T12:48:32;7.40;;;4.30;;
68432;SDS011;55412;51.350;17.056;2022-07-05T12:51:03;8.60;;;5.50;;
68432;SDS011;55412;51.350;17.056;2022-07-05T12:53:32;7.60;;;4.88;;
68432;SDS011;55412;51.350;17.056;2022-07-05T12:56:21;6.40;;;4.33;;
68432;SDS011;55412;51.350;17.056;2022-07-05T12:59:10;7.45;;;4.03;;
68432;SDS011;55412;51.350;17.056;2022-07-05T13:01:37;8.88;;;3.60;;
68432;SDS011;55412;51.350;17.056;2022-07-05T13:04:08;4.75;;;3.53;;
68432;SDS011;55412;51.350;17.056;2022-07-05T13:12:31;7.57;;;4.88;;
68432;SDS011;55412;51.350;17.056;2022-07-05T13:14:51;9.77;;;4.70;;
68432;SDS011;55412;51.350;17.056;2022-07-05T13:17:22;6.70;;;4.30;;
68432;SDS011;55412;51.350;17.056;2022-07-05T13:19:50;6.72;;;4.28;;
68432;SDS011;55412;51.350;17.056;2022-07-05T13:22:17;6.90;;;4.97;;
68432;SDS011;55412;51.350;17.056;2022-07-05T13:24:44;8.77;;;4.88;;
68432;SDS011;55412;51.350;17.056;2022-07-05T13:27:10;4.90;;;3.60;;
68432;SDS011;55412;51.350;17.056;2022-07-05T13:29:38;6.22;;;3.70;;
68432;SDS011;55412;51.350;17.056;2022-07-05T13:32:05;5.53;;;2.38;;
68432;SDS011;55412;51.350;17.056;2022-07-05T13:34:32;4.57;;;2.43;;
68432;SDS011;55412;51.350;17.056;2022-07-05T13:36:58;6.22;;;3.38;;
68432;SDS011;55412;51.350;17.056;2022-07-05T13:39:26;5.90;;;3.38;;
68432;SDS011;55412;51.350;17.056;2022-07-05T13:41:55;6.35;;;2.95;;
68432;SDS011;55412;51.350;17.056;2022-07-05T13:44:22;5.00;;;2.60;;
68432;SDS011;55412;51.350;17.056;2022-07-05T13:46:48;4.73;;;3.20;;
68432;SDS011;55412;51.350;17.056;2022-07-05T13:49:15;4.60;;;3.22;;
68432;SDS011;55412;51.350;17.056;2022-07-05T13:51:41;6.72;;;3.45;;
68432;SDS011;55412;51.350;17.056;2022-07-05T13:54:07;7.53;;;2.80;;
68432;SDS011;55412;51.350;17.056;2022-07-05T13:56:33;6.03;;;3.17;;
68432;SDS011;55412;51.350;17.056;2022-07-05T13:59:02;4.37;;;2.40;;
68432;SDS011;55412;51.350;17.056;2022-07-05T14:01:28;4.50;;;2.85;;
68432;SDS011;55412;51.350;17.056;2022-07-05T14:03:56;4.50;;;2.38;;
68432;SDS011;55412;51.350;17.056;2022-07-05T14:06:24;5.05;;;2.60;;
68432;SDS011;55412;51.350;17.056;2022-07-05T14:08:51;5.57;;;2.70;;
68432;SDS011;55412;51.350;17.056;2022-07-05T14:11:18;3.63;;;2.10;;
68432;SDS011;55412;51.350;17.056;2022-07-05T14:13:44;6.60;;;2.20;;
68432;SDS011;55412;51.350;17.056;2022-07-05T14:16:10;5.25;;;2.35;;
68432;SDS011;55412;51.350;17.056;2022-07-05T14:18:36;4.80;;;2.28;;
68432;SDS011;55412;51.350;17.056;2022-07-05T14:21:03;6.22;;;2.15;;
68432;SDS011;55412;51.350;17.056;2022-07-05T14:23:29;6.17;;;2.20;;
68432;SDS011;55412;51.350;17.056;2022-07-05T14:25:57;5.30;;;2.50;;
68432;SDS011;55412;51.350;17.056;2022-07-05T14:28:25;4.53;;;2.63;;
68432;SDS011;55412;51.350;17.056;2022-07-05T14:30:51;6.28;;;2.50;;
68432;SDS011;55412;51.350;17.056;2022-07-05T14:33:17;4.80;;;2.30;;
68432;SDS011;55412;51.350;17.056;2022-07-05T14:35:43;3.90;;;2.47;;
68432;SDS011;55412;51.350;17.056;2022-07-05T14:38:09;4.47;;;2.20;;
68432;SDS011;55412;51.350;17.056;2022-07-05T14:40:35;3.92;;;2.03;;
68432;SDS011;55412;51.350;17.056;2022-07-05T14:43:02;4.43;;;1.52;;
68432;SDS011;55412;51.350;17.056;2022-07-05T14:45:28;5.30;;;2.35;;
68432;SDS011;55412;51.350;17.056;2022-07-05T14:47:54;4.93;;;2.57;;
68432;SDS011;55412;51.350;17.056;2022-07-05T14:50:21;5.03;;;2.22;;
68432;SDS011;55412;51.350;17.056;2022-07-05T14:52:48;6.22;;;1.90;;
68432;SDS011;55412;51.350;17.056;2022-07-05T14:55:15;5.55;;;2.20;;
68432;SDS011;55412;51.350;17.056;2022-07-05T14:57:42;4.00;;;2.22;;
68432;SDS011;55412;51.350;17.056;2022-07-05T15:00:10;4.40;;;2.03;;
68432;SDS011;55412;51.350;17.056;2022-07-05T15:02:39;5.25;;;2.17;;
68432;SDS011;55412;51.350;17.056;2022-07-05T15:05:06;3.80;;;1.85;;
68432;SDS011;55412;51.350;17.056;2022-07-05T15:07:34;6.68;;;2.35;;
68432;SDS011;55412;51.350;17.056;2022-07-05T15:10:00;4.78;;;2.47;;
68432;SDS011;55412;51.350;17.056;2022-07-05T15:12:26;3.50;;;1.80;;
68432;SDS011;55412;51.350;17.056;2022-07-05T15:14:52;3.63;;;1.40;;
68432;SDS011;55412;51.350;17.056;2022-07-05T15:17:19;4.70;;;1.58;;
68432;SDS011;55412;51.350;17.056;2022-07-05T15:19:45;4.35;;;1.80;;
68432;SDS011;55412;51.350;17.056;2022-07-05T15:22:11;5.07;;;1.98;;
68432;SDS011;55412;51.350;17.056;2022-07-05T15:24:37;5.10;;;1.70;;
68432;SDS011;55412;51.350;17.056;2022-07-05T15:27:03;4.22;;;1.42;;